Tiempo atmosférico en la estación meteorológica de Belmonte, Cuenca (800 m.)

Fecha
DESCASC
Temp. máxima en grados centígrados (hora)
DESCASC
Temp. mínima en grados centígrados (hora)
DESCASC
Temp. media en grados centígrados
DESCASC
Racha de viento máxima en m/sg (hora)
DESCASC
Velocidad máxima media en intervalos de 10 minutos(hora)
DESCASC
Precipitaciones diarias en mm
DESCASC
Precipitaciones de 00:00 a 06:00 en mm
DESCASC
Precipitaciones de 06:00 a 12:00 en mm
DESCASC
Precipitaciones de 12:00 a 18:00 en mm
DESCASC
Precipitaciones de 18:00 a 24:00 en mm
DESCASC
10-09-2017 23.6 (17:30) 10.3 (00:00) 17 11.11 (14:20) 3.61 (13:20) 0 0 0 0 0
24-09-2017 29.9 (15:20) 14.8 (00:00) 22.3 5.28 (04:30) 3.33 (04:30) 0 0 0 0 0
23-09-2017 28 (17:30) 14.5 (00:00) 21.3 13.33 (00:10) 7.78 (00:10) 0 0 0 0 0
22-09-2017 26.9 (17:20) 15.4 (00:00) 21.1 14.17 (23:20) 7.78 (23:59) 0 0 0 0 0
21-09-2017 29.7 (17:20) 15.4 (00:00) 22.6 8.06 (04:00) 5 (23:59) 0 0 0 0 0
20-09-2017 28.6 (15:40) 12.6 (00:00) 20.6 5 (06:30) 2.5 (23:50) 0 0 0 0 0
19-09-2017 26.3 (16:00) 9.8 (00:00) 18 7.78 (17:00) 3.61 (18:20) 0 0 0 0 0
18-09-2017 24.7 (17:10) 9 (00:00) 16.9 11.39 (16:30) 4.17 (15:10) 0 0 0 0 0
17-09-2017 25.9 (17:10) 8.5 (00:00) 17.2 7.5 (18:20) 3.33 (16:10) 0 0 0 0 0
16-09-2017 22.2 (15:30) 11.6 (00:00) 16.9 9.17 (18:00) 3.61 (18:50) 0 0 0 0 0
15-09-2017 25.4 (15:10) 14.2 (00:00) 19.8 8.89 (18:20) 3.89 (08:50) 0 0 0 0 0
14-09-2017 31.5 (16:00) 14.8 (00:00) 23.2 7.22 (15:30) 3.33 (19:30) 0 0 0 0 0
13-09-2017 32.2 (17:10) 15.4 (00:00) 23.8 8.33 (09:50) 4.72 (10:20) 0 0 0 0 0
12-09-2017 28 (17:00) 14.2 (00:00) 21.1 7.22 (14:40) 3.61 (17:10) 0 0 0 0 0
11-09-2017 30.8 (16:30) 11.7 (00:00) 21.2 11.39 (16:10) 4.44 (19:00) 0 0 0 0 0
26-08-2017 35.1 (14:40) 21.4 (00:00) 28.2 8.89 (07:00) 5.28 (09:00) 0.2 0 0 0 0.2
09-09-2017 25 (16:10) 14.2 (00:00) 19.6 11.39 (18:00) 5.28 (18:30) 0 0 0 0 0
08-09-2017 32 (17:40) 16.6 (00:00) 24.3 7.22 (00:50) 3.61 (01:50) 0 0 0 0 0
07-09-2017 30.6 (17:10) 18.5 (00:00) 24.6 10.83 (07:50) 6.11 (01:40) 0 0 0 0 0
06-09-2017 34.4 (16:00) 19.4 (00:00) 26.9 12.22 (19:20) 6.67 (19:40) 0 0 0 0 0
05-09-2017 32.5 (17:00) 17.8 (00:00) 25.1 10 (09:40) 5.83 (02:00) 0 0 0 0 0
04-09-2017 30.7 (17:50) 13.3 (00:00) 22 8.33 (23:50) 4.17 (23:50) 0 0 0 0 0
03-09-2017 31.8 (16:50) 14.4 (00:00) 23.1 8.61 (17:00) 3.61 (17:20) 0 0 0 0 0
02-09-2017 29.4 (18:00) 16.3 (00:00) 22.8 8.61 (01:20) 4.72 (02:30) 0 0 0 0 0
01-09-2017 30.5 (18:00) 17.9 (00:00) 24.2 9.44 (03:20) 5.56 (03:10) 0 0 0 0 0
31-08-2017 29.5 (17:40) 15.6 (00:00) 22.6 5.28 (17:00) 2.5 (14:10) 0 0 0 0 0
30-08-2017 25.5 (17:30) 15.2 (00:00) 20.3 9.72 (00:20) 5.28 (00:20) 0.2 0 0 0.2 0
29-08-2017 27.1 (17:10) 15.1 (00:00) 21.1 11.67 (23:40) 6.67 (23:40) 0.2 0 0 0.2 0
28-08-2017 25.8 (16:10) 17.2 (00:00) 21.5 12.22 (03:50) 6.67 (03:50) 1.2 0 0.2 0 1
27-08-2017 25.9 (14:00) 19.8 (00:00) 22.8 11.94 (14:10) 7.22 (04:00) 1 0 0 0.6 0.4

Gráficas

Temp. máximas Temp. mínimas Temp. medias Precipitaciones Rachas de viento máximas Velocidades máximas media en intervalos de 10 minutos

Datos horarios

Fecha y hora oficial Temperatura (ºC) Velocidad del viento (km/h) Dirección del viento Racha (km/h) Dirección de racha Precipitación (mm) Presión (hPa) Tendencia (hPa) Humedad (%)
2017-09-24 23:00:00 20.7 3 Norte 10 Noroeste 0 -- -- 35
2017-09-24 22:00:00 22 5 Nordeste 7 Este 0 -- -- 34
2017-09-24 21:00:00 24.2 3 Este 4 Este 0 -- -- 31
2017-09-24 20:00:00 26.6 0 Calma 12 Noroeste 0 -- -- 29
2017-09-24 19:00:00 28 6 Oeste 18 Oeste 0 -- -- 27
2017-09-24 18:00:00 29.3 5 Noroeste 19 Oeste 0 -- -- 25
2017-09-24 17:00:00 29.8 8 Oeste 18 Oeste 0 -- -- 25
2017-09-24 16:00:00 29.8 6 Sudoeste 15 Oeste 0 -- -- 25
2017-09-24 15:00:00 29.4 6 Sudoeste 17 Sudoeste 0 -- -- 26
2017-09-24 14:00:00 27.9 6 Sur 14 Sur 0 -- -- 32
2017-09-24 13:00:00 25.8 3 Sur 12 Sur 0 -- -- 38
2017-09-24 12:00:00 23.6 6 Sudoeste 12 Sudeste 0 -- -- 45
2017-09-24 11:00:00 21.2 6 Sudeste 15 Sudeste 0 -- -- 54
2017-09-24 10:00:00 19 6 Sudeste 15 Este 0 -- -- 67
2017-09-24 09:00:00 15.7 4 Este 16 Este 0 -- -- 80
2017-09-24 08:00:00 14.8 2 Noroeste 10 Sudeste 0 -- -- 82
2017-09-24 07:00:00 15.6 6 Este 18 Sudeste 0 -- -- 79
2017-09-24 06:00:00 15.7 4 Este 11 Este 0 -- -- 74
2017-09-24 05:00:00 16.5 5 Este 19 Este 0 -- -- 68
2017-09-24 04:00:00 17.3 5 Este 13 Este 0 -- -- 60
2017-09-24 03:00:00 18 0 Calma 15 Sudeste 0 -- -- 57
2017-09-24 02:00:00 17.7 2 Este 12 Este 0 -- -- 56
2017-09-24 01:00:00 19.4 5 Este 17 Este 0 -- -- 50
2017-09-24 00:00:00 20.5 9 Este 15 Este 0 -- -- 47
2017-09-23 23:00:00 21.2 9 Sudeste 15 Sudeste 0 -- -- 43
2017-09-23 22:00:00 22.1 8 Sudeste 13 Sudeste 0 -- -- 39
2017-09-23 21:00:00 22.2 3 Nordeste 7 Nordeste 0 -- -- 34
2017-09-23 20:00:00 25 0 Calma 5 Noroeste 0 -- -- 32
2017-09-23 19:00:00 26.6 3 Noroeste 12 Sudoeste 0 -- -- 29
2017-09-23 18:00:00 27.8 7 Oeste 17 Sur 0 -- -- 26
2017-09-23 17:00:00 27.2 6 Sur 21 Sur 0 -- -- 30
2017-09-23 16:00:00 26.9 6 Sudeste 17 Sudeste 0 -- -- 34
2017-09-23 15:00:00 25.9 10 Sudeste 24 Sudeste 0 -- -- 36
2017-09-23 14:00:00 24.9 12 Sudeste 31 Sudeste 0 -- -- 37
2017-09-23 13:00:00 23.2 14 Sudeste 25 Sudeste 0 -- -- 45
2017-09-23 12:00:00 21.1 15 Sudeste 28 Sudeste 0 -- -- 56
2017-09-23 11:00:00 19.2 15 Sudeste 30 Este 0 -- -- 66
2017-09-23 10:00:00 17.1 16 Sudeste 30 Sudeste 0 -- -- 76
2017-09-23 09:00:00 14.8 16 Este 27 Este 0 -- -- 85
2017-09-23 08:00:00 14.5 16 Este 33 Este 0 -- -- 85
2017-09-23 07:00:00 14.8 17 Este 32 Este 0 -- -- 83
2017-09-23 06:00:00 14.9 18 Este 34 Este 0 -- -- 82
2017-09-23 05:00:00 15.8 21 Sudeste 36 Este 0 -- -- 80
2017-09-23 04:00:00 16.1 20 Sudeste 40 Sudeste 0 -- -- 80
2017-09-23 03:00:00 16.5 19 Sudeste 41 Este 0 -- -- 77
2017-09-23 02:00:00 16.7 25 Sudeste 44 Sudeste 0 -- -- 80
2017-09-23 01:00:00 17.2 23 Sudeste 48 Este 0 -- -- 75
2017-09-23 00:00:00 18 28 Este 51 Este 0 -- -- 69
2017-09-22 23:00:00 19 26 Este 45 Sudeste 0 -- -- 64
2017-09-22 22:00:00 20.8 22 Sudeste 42 Sudeste 0 -- -- 58
2017-09-22 21:00:00 22.5 16 Sudeste 32 Sudeste 0 -- -- 46
2017-09-22 20:00:00 24.2 16 Sudeste 32 Sudeste 0 -- -- 42
2017-09-22 19:00:00 25.9 17 Sudeste 30 Sudeste 0 -- -- 32
2017-09-22 18:00:00 26.4 11 Sudeste 25 Sudeste 0 -- -- 33
2017-09-22 17:00:00 26.8 10 Sudeste 26 Sudeste 0 -- -- 30
2017-09-22 16:00:00 26 9 Sudeste 27 Sudeste 0 -- -- 33
2017-09-22 15:00:00 26.3 12 Sudeste 23 Sudeste 0 -- -- 33
2017-09-22 14:00:00 25.5 10 Sudeste 26 Sudeste 0 -- -- 36
2017-09-22 13:00:00 24.1 13 Sudeste 27 Sudeste 0 -- -- 41
2017-09-22 12:00:00 21.7 15 Sudeste 33 Sudeste 0 -- -- 51
2017-09-22 11:00:00 19.7 20 Sudeste 37 Sudeste 0 -- -- 62
2017-09-22 10:00:00 17.2 18 Sudeste 39 Sudeste 0 -- -- 78
2017-09-22 09:00:00 15.7 16 Este 36 Sudeste 0 -- -- 87
2017-09-22 08:00:00 15.5 20 Sudeste 38 Este 0 -- -- 88
2017-09-22 07:00:00 15.8 15 Sudeste 29 Este 0 -- -- 86
2017-09-22 06:00:00 16.5 14 Sudeste 29 Sudeste 0 -- -- 82
2017-09-22 05:00:00 17 16 Sudeste 31 Este 0 -- -- 80
2017-09-22 04:00:00 17.6 17 Sudeste 36 Sudeste 0 -- -- 77
2017-09-22 03:00:00 18.2 20 Sudeste 40 Sudeste 0 -- -- 74
2017-09-22 02:00:00 19.4 20 Sudeste 37 Sudeste 0 -- -- 67
2017-09-22 01:00:00 20.5 17 Sudeste 35 Este 0 -- -- 54
2017-09-22 00:00:00 21.3 18 Este 27 Este 0 -- -- 45
2017-09-21 23:00:00 23 10 Sudeste 18 Este 0 -- -- 38
2017-09-21 22:00:00 23.8 7 Sudeste 12 Sudeste 0 -- -- 34
2017-09-21 21:00:00 24.1 3 Nordeste 5 Nordeste 0 -- -- 30
2017-09-21 20:00:00 26.4 2 Oeste 7 Oeste 0 -- -- 28
2017-09-21 19:00:00 27.7 0 Calma 13 Oeste 0 -- -- 25
2017-09-21 18:00:00 29.1 4 Sudoeste 18 Noroeste 0 -- -- 25
2017-09-21 17:00:00 29.5 5 Noroeste 17 Sudoeste 0 -- -- 24
2017-09-21 16:00:00 29.3 5 Oeste 17 Sur 0 -- -- 25
2017-09-21 15:00:00 28.7 6 Sur 12 Sur 0 -- -- 25
2017-09-21 14:00:00 27.3 4 Sur 12 Sur 0 -- -- 29
2017-09-21 13:00:00 25.1 7 Sur 14 Sur 0 -- -- 35
2017-09-21 12:00:00 23.2 5 Sudeste 18 Este 0 -- -- 42
2017-09-21 11:00:00 20.7 11 Sudeste 19 Sudeste 0 -- -- 57
2017-09-21 10:00:00 18.4 9 Sudeste 23 Este 0 -- -- 70
2017-09-21 09:00:00 16 13 Este 24 Este 0 -- -- 83
2017-09-21 08:00:00 15.4 10 Este 22 Este 0 -- -- 85
2017-09-21 07:00:00 15.6 10 Este 22 Este 0 -- -- 83
2017-09-21 06:00:00 15.8 13 Este 26 Este 0 -- -- 80
2017-09-21 05:00:00 16.4 12 Este 27 Sudeste 0 -- -- 77
2017-09-21 04:00:00 16.7 12 Este 29 Sudeste 0 -- -- 74
2017-09-21 03:00:00 17.5 10 Este 21 Este 0 -- -- 66
2017-09-21 02:00:00 18.5 4 Este 18 Este 0 -- -- 61
2017-09-21 01:00:00 19.4 8 Este 15 Este 0 -- -- 53
2017-09-21 00:00:00 20.5 8 Este 17 Este 0 -- -- 41
2017-09-20 23:00:00 18.7 4 Nordeste 9 Este 0 -- -- 34
2017-09-20 22:00:00 19.6 4 Nordeste 9 Este 0 -- -- 32
2017-09-20 21:00:00 22.2 3 Nordeste 7 Este 0 -- -- 29
2017-09-20 20:00:00 25.1 0 Calma 8 Noroeste 0 -- -- 28
2017-09-20 19:00:00 26.8 5 Noroeste 13 Sur 0 -- -- 24
2017-09-20 18:00:00 28.1 5 Oeste 14 Noroeste 0 -- -- 24
2017-09-20 17:00:00 28.2 6 Oeste 15 Sur 0 -- -- 23
2017-09-20 16:00:00 28.6 2 Sudoeste 14 Oeste 0 -- -- 23
2017-09-20 15:00:00 27.5 4 Sudeste 12 Sur 0 -- -- 26
2017-09-20 14:00:00 26.7 4 Noroeste 12 Sudoeste 0 -- -- 27
2017-09-20 13:00:00 24.8 5 Sudeste 12 Sudeste 0 -- -- 33
2017-09-20 12:00:00 23 4 Sudeste 11 Sudeste 0 -- -- 38
2017-09-20 11:00:00 20.4 6 Sudeste 14 Sudeste 0 -- -- 47
2017-09-20 10:00:00 17.8 4 Este 13 Nordeste 0 -- -- 58
2017-09-20 09:00:00 13.9 5 Este 13 Este 0 -- -- 65
2017-09-20 08:00:00 12.8 2 Oeste 11 Nordeste 0 -- -- 63
2017-09-20 07:00:00 13.5 0 Calma 18 Este 0 -- -- 63
2017-09-20 06:00:00 13 0 Calma 5 Este 0 -- -- 66
2017-09-20 05:00:00 14.3 0 Calma 14 Este 0 -- -- 51
2017-09-20 04:00:00 14.1 5 Este 10 Este 0 -- -- 56
2017-09-20 03:00:00 13.8 3 Este 9 Este 0 -- -- 43
2017-09-20 02:00:00 13.4 2 Sur 10 Sudoeste 0 -- -- 38
2017-09-20 01:00:00 14.7 2 Nordeste 6 Nordeste 0 -- -- 40
2017-09-20 00:00:00 15.5 0 Calma 6 Nordeste 0 -- -- 38
2017-09-19 23:00:00 16.5 3 Nordeste 8 Este 0 -- -- 36
2017-09-19 22:00:00 18.1 3 Nordeste 7 Nordeste 0 -- -- 33
2017-09-19 21:00:00 21.1 0 Calma 8 Noroeste 0 -- -- 30
2017-09-19 20:00:00 23.2 4 Noroeste 19 Norte 0 -- -- 26
2017-09-19 19:00:00 24.6 7 Noroeste 21 Noroeste 0 -- -- 24
2017-09-19 18:00:00 26.1 7 Noroeste 22 Noroeste 0 -- -- 24
2017-09-19 17:00:00 25.7 10 Noroeste 28 Noroeste 0 -- -- 26
2017-09-19 16:00:00 26.3 10 Oeste 23 Noroeste 0 -- -- 28
2017-09-19 15:00:00 25.6 9 Noroeste 23 Noroeste 0 -- -- 30
2017-09-19 14:00:00 24.7 6 Noroeste 24 Noroeste 0 -- -- 31
2017-09-19 13:00:00 23.5 9 Noroeste 19 Noroeste 0 -- -- 34
2017-09-19 12:00:00 21.9 3 Noroeste 6 Oeste 0 -- -- 36
2017-09-19 11:00:00 18.7 3 Sur 11 Sudoeste 0 -- -- 39
2017-09-19 10:00:00 15.8 2 Noroeste 7 Sur 0 -- -- 48
2017-09-19 09:00:00 10.6 0 Calma 6 Este 0 -- -- 59
2017-09-19 08:00:00 9.9 2 Nordeste 5 Este 0 -- -- 59
2017-09-19 07:00:00 10.5 0 Calma 5 Nordeste 0 -- -- 57
2017-09-19 06:00:00 10.9 0 Calma 5 Este 0 -- -- 56
2017-09-19 05:00:00 11.4 0 Calma 4 Nordeste 0 -- -- 54
2017-09-19 04:00:00 11.9 0 Calma 4 Nordeste 0 -- -- 53
2017-09-19 03:00:00 12.6 0 Calma 4 Nordeste 0 -- -- 51
2017-09-19 02:00:00 13.9 0 Calma 3 Nordeste 0 -- -- 48
2017-09-19 01:00:00 15.1 0 Calma 5 Este 0 -- -- 45
2017-09-19 00:00:00 16.8 0 Calma 4 Norte 0 -- -- 42
2017-09-18 23:00:00 17.8 0 Calma 8 Noroeste 0 -- -- 39
2017-09-18 22:00:00 18.7 0 Calma 7 Norte 0 -- -- 38
2017-09-18 21:00:00 20.1 2 Norte 20 Noroeste 0 -- -- 36
2017-09-18 20:00:00 21.6 6 Norte 31 Norte 0 -- -- 35
2017-09-18 19:00:00 22.7 12 Noroeste 28 Noroeste 0 -- -- 35
2017-09-18 18:00:00 24 15 Noroeste 38 Noroeste 0 -- -- 32
2017-09-18 17:00:00 24.6 13 Noroeste 41 Oeste 0 -- -- 32
2017-09-18 16:00:00 24.5 13 Noroeste 35 Norte 0 -- -- 30
2017-09-18 15:00:00 24.5 11 Noroeste 31 Noroeste 0 -- -- 32
2017-09-18 14:00:00 23.7 13 Noroeste 27 Noroeste 0 -- -- 31
2017-09-18 13:00:00 22.8 10 Noroeste 32 Oeste 0 -- -- 31
2017-09-18 12:00:00 21.6 9 Oeste 21 Oeste 0 -- -- 31
2017-09-18 11:00:00 18 3 Sudoeste 9 Sudoeste 0 -- -- 28
2017-09-18 10:00:00 14.9 3 Sur 7 Sudoeste 0 -- -- 32
2017-09-18 09:00:00 9.9 3 Este 5 Este 0 -- -- 43
2017-09-18 08:00:00 9.2 2 Nordeste 6 Norte 0 -- -- 42
2017-09-18 07:00:00 10 0 Calma 6 Nordeste 0 -- -- 40
2017-09-18 06:00:00 10.2 0 Calma 6 Nordeste 0 -- -- 39
2017-09-18 05:00:00 10.8 3 Nordeste 8 Este 0 -- -- 38
2017-09-18 04:00:00 11.9 0 Calma 5 Este 0 -- -- 37
2017-09-18 03:00:00 12.6 0 Calma 4 Sudeste 0 -- -- 38
2017-09-18 02:00:00 13.3 2 Este 6 Nordeste 0 -- -- 36
2017-09-18 01:00:00 14.8 2 Nordeste 5 Este 0 -- -- 34
2017-09-18 00:00:00 15.3 0 Calma 7 Nordeste 0 -- -- 32
2017-09-17 23:00:00 16.7 3 Nordeste 6 Nordeste 0 -- -- 29
2017-09-17 22:00:00 19.4 0 Calma 11 Oeste 0 -- -- 25
2017-09-17 21:00:00 21.4 3 Sudoeste 10 Sudoeste 0 -- -- 22
2017-09-17 20:00:00 23.7 4 Sudoeste 18 Sudoeste 0 -- -- 21
2017-09-17 19:00:00 24.5 10 Oeste 27 Noroeste 0 -- -- 20
2017-09-17 18:00:00 25.6 8 Oeste 22 Oeste 0 -- -- 20
2017-09-17 17:00:00 25.8 8 Oeste 23 Sudoeste 0 -- -- 21
2017-09-17 16:00:00 25.5 9 Oeste 23 Sudoeste 0 -- -- 22
2017-09-17 15:00:00 24.5 11 Oeste 24 Oeste 0 -- -- 22
2017-09-17 14:00:00 23.3 9 Noroeste 25 Noroeste 0 -- -- 25
2017-09-17 13:00:00 22 9 Sudoeste 20 Sudoeste 0 -- -- 27
2017-09-17 12:00:00 19.3 5 Sur 12 Sudoeste 0 -- -- 36
2017-09-17 11:00:00 17.3 3 Sur 13 Sudeste 0 -- -- 47
2017-09-17 10:00:00 13.8 8 Sudeste 18 Sudeste 0 -- -- 64
2017-09-17 09:00:00 11.3 9 Sudeste 17 Este 0 -- -- 85
2017-09-17 08:00:00 8.5 0 Calma 3 Noroeste 0 -- -- 56
2017-09-17 07:00:00 10.1 0 Calma 9 Este 0 -- -- 62
2017-09-17 06:00:00 10.1 3 Este 10 Este 0 -- -- 45
2017-09-17 05:00:00 10.5 0 Calma 4 Nordeste 0 -- -- 42
2017-09-17 04:00:00 10.9 2 Nordeste 5 Nordeste 0 -- -- 41
2017-09-17 03:00:00 11.1 0 Calma 5 Este 0 -- -- 43
2017-09-17 02:00:00 12.1 0 Calma 4 Este 0 -- -- 40
2017-09-17 01:00:00 13 0 Calma 7 Nordeste 0 -- -- 38
2017-09-17 00:00:00 13.8 0 Calma 6 Este 0 -- -- 36
2017-09-16 23:00:00 14.5 2 Nordeste 6 Sudeste 0 -- -- 34
2017-09-16 22:00:00 16 0 Calma 5 Nordeste 0 -- -- 31
2017-09-16 21:00:00 18.1 0 Calma 13 Noroeste 0 -- -- 29
2017-09-16 20:00:00 19.4 5 Noroeste 23 Noroeste 0 -- -- 26
2017-09-16 19:00:00 20.4 10 Noroeste 32 Noroeste 0 -- -- 25
2017-09-16 18:00:00 22 10 Noroeste 33 Noroeste 0 -- -- 23
2017-09-16 17:00:00 22.1 10 Noroeste 25 Noroeste 0 -- -- 25
2017-09-16 16:00:00 21.5 4 Norte 20 Noroeste 0 -- -- 26
2017-09-16 15:00:00 22 4 Norte 15 Norte 0 -- -- 26
2017-09-16 14:00:00 21 3 Norte 16 Norte 0 -- -- 26
2017-09-16 13:00:00 20.3 3 Norte 19 Noroeste 0 -- -- 26
2017-09-16 12:00:00 19.9 3 Norte 9 Noroeste 0 -- -- 36
2017-09-16 11:00:00 17.6 3 Este 9 Este 0 -- -- 42
2017-09-16 10:00:00 16 0 Calma 10 Nordeste 0 -- -- 44
2017-09-16 09:00:00 11.9 0 Calma 11 Nordeste 0 -- -- 55
2017-09-16 08:00:00 11.9 2 Nordeste 11 Este 0 -- -- 55
2017-09-16 07:00:00 11.9 0 Calma 7 Nordeste 0 -- -- 55
2017-09-16 06:00:00 11.9 2 Oeste 15 Este 0 -- -- 57
2017-09-16 05:00:00 12 4 Este 17 Sudeste 0 -- -- 57
2017-09-16 04:00:00 11.8 2 Nordeste 16 Este 0 -- -- 58
2017-09-16 03:00:00 12 2 Este 13 Este 0 -- -- 57
2017-09-16 02:00:00 12.5 7 Este 21 Este 0 -- -- 55
2017-09-16 01:00:00 13.1 9 Este 21 Este 0 -- -- 52
2017-09-16 00:00:00 14.2 8 Sudeste 25 Este 0 -- -- 53
2017-09-15 23:00:00 16.4 13 Este 28 Sudeste 0 -- -- 50
2017-09-15 22:00:00 17.5 3 Norte 13 Norte 0 -- -- 38
2017-09-15 21:00:00 18.4 3 Noroeste 13 Norte 0 -- -- 37
2017-09-15 20:00:00 19.9 3 Noroeste 21 Norte 0 -- -- 37
2017-09-15 19:00:00 21.3 8 Norte 32 Noroeste 0 -- -- 37
2017-09-15 18:00:00 23.4 10 Norte 28 Noroeste 0 -- -- 35
2017-09-15 17:00:00 23.5 10 Noroeste 27 Noroeste 0 -- -- 38
2017-09-15 16:00:00 23.9 6 Noroeste 30 Oeste 0 -- -- 40
2017-09-15 15:00:00 25.2 10 Oeste 27 Oeste 0 -- -- 37
2017-09-15 14:00:00 24.4 11 Oeste 28 Oeste 0 -- -- 38
2017-09-15 13:00:00 23.7 12 Oeste 24 Oeste 0 -- -- 39
2017-09-15 12:00:00 22.8 9 Oeste 20 Sudoeste 0 -- -- 41
2017-09-15 11:00:00 21.1 8 Sudoeste 23 Sudeste 0 -- -- 46
2017-09-15 10:00:00 18.1 11 Sudeste 23 Sudeste 0 -- -- 75
2017-09-15 09:00:00 16.2 13 Sudeste 23 Sudeste 0 -- -- 84
2017-09-15 08:00:00 15.7 12 Sudeste 22 Este 0 -- -- 82
2017-09-15 07:00:00 16.2 10 Sudeste 22 Este 0 -- -- 76
2017-09-15 06:00:00 16.8 10 Este 20 Este 0 -- -- 70
2017-09-15 05:00:00 17.2 12 Este 20 Sudeste 0 -- -- 67
2017-09-15 04:00:00 17.8 10 Sudeste 22 Sudeste 0 -- -- 62
2017-09-15 03:00:00 17.9 13 Este 21 Este 0 -- -- 55
2017-09-15 02:00:00 18.3 2 Este 9 Este 0 -- -- 39
2017-09-15 01:00:00 18.4 3 Sudeste 9 Nordeste 0 -- -- 35
2017-09-15 00:00:00 19.1 2 Nordeste 8 Nordeste 0 -- -- 35
2017-09-14 23:00:00 20.7 3 Nordeste 7 Este 0 -- -- 33
2017-09-14 22:00:00 23.6 2 Nordeste 8 Sur 0 -- -- 30
2017-09-14 21:00:00 25.6 2 Noroeste 10 Noroeste 0 -- -- 29
2017-09-14 20:00:00 27.4 6 Noroeste 22 Noroeste 0 -- -- 26
2017-09-14 19:00:00 29.2 7 Noroeste 21 Noroeste 0 -- -- 26
2017-09-14 18:00:00 30.4 8 Noroeste 22 Noroeste 0 -- -- 24
2017-09-14 17:00:00 30.4 10 Noroeste 23 Noroeste 0 -- -- 24
2017-09-14 16:00:00 31.5 8 Oeste 26 Noroeste 0 -- -- 24
2017-09-14 15:00:00 30.2 9 Noroeste 25 Oeste 0 -- -- 25
2017-09-14 14:00:00 29.7 10 Noroeste 26 Noroeste 0 -- -- 26
2017-09-14 13:00:00 28.4 10 Noroeste 21 Oeste 0 -- -- 30
2017-09-14 12:00:00 26.3 5 Oeste 13 Oeste 0 -- -- 30
2017-09-14 11:00:00 22.5 3 Sudoeste 10 Sur 0 -- -- 35
2017-09-14 10:00:00 19.8 4 Sudoeste 8 Oeste 0 -- -- 38
2017-09-14 09:00:00 15.5 2 Este 6 Nordeste 0 -- -- 49
2017-09-14 08:00:00 15.3 3 Sudeste 6 Sudeste 0 -- -- 49
2017-09-14 07:00:00 15.1 4 Este 8 Nordeste 0 -- -- 51
2017-09-14 06:00:00 15.3 0 Calma 8 Nordeste 0 -- -- 53
2017-09-14 05:00:00 15.5 0 Calma 10 Sur 0 -- -- 53
2017-09-14 04:00:00 17 0 Calma 7 Nordeste 0 -- -- 52
2017-09-14 03:00:00 18.2 2 Nordeste 4 Nordeste 0 -- -- 54
2017-09-14 02:00:00 19.6 0 Calma 7 Nordeste 0 -- -- 55
2017-09-14 01:00:00 21.1 3 Este 16 Este 0 -- -- 51
2017-09-14 00:00:00 22.1 10 Sudeste 22 Sudeste 0 -- -- 49
2017-09-13 23:00:00 23.3 12 Sudeste 27 Sudeste 0 -- -- 45
2017-09-13 22:00:00 24.6 11 Sudeste 18 Sudeste 0 -- -- 38
2017-09-13 21:00:00 26.1 4 Nordeste 8 Oeste 0 -- -- 23
2017-09-13 20:00:00 29.1 5 Oeste 17 Sudoeste 0 -- -- 19
2017-09-13 19:00:00 30.8 9 Oeste 26 Oeste 0 -- -- 17
2017-09-13 18:00:00 31.9 8 Sudoeste 24 Sudoeste 0 -- -- 18
2017-09-13 17:00:00 32.1 7 Sudoeste 19 Sudoeste 0 -- -- 19
2017-09-13 16:00:00 31.5 3 Sur 21 Sudoeste 0 -- -- 23
2017-09-13 15:00:00 29.9 5 Sudoeste 18 Este 0 -- -- 27
2017-09-13 14:00:00 27.9 10 Sudeste 23 Sudeste 0 -- -- 34
2017-09-13 13:00:00 26.1 14 Sudeste 28 Sudeste 0 -- -- 43
2017-09-13 12:00:00 24.3 15 Este 27 Este 0 -- -- 47
2017-09-13 11:00:00 21.9 13 Sudeste 30 Este 0 -- -- 57
2017-09-13 10:00:00 18.9 15 Este 30 Este 0 -- -- 69
2017-09-13 09:00:00 16.5 4 Este 14 Nordeste 0 -- -- 75
2017-09-13 08:00:00 15.6 4 Norte 15 Este 0 -- -- 76
2017-09-13 07:00:00 15.9 2 Noroeste 24 Este 0 -- -- 75
2017-09-13 06:00:00 16.4 15 Este 26 Este 0 -- -- 75
2017-09-13 05:00:00 16.5 11 Este 23 Este 0 -- -- 74
2017-09-13 04:00:00 17.1 11 Este 22 Este 0 -- -- 69
2017-09-13 03:00:00 17.5 5 Este 23 Este 0 -- -- 54
2017-09-13 02:00:00 17.9 5 Este 18 Este 0 -- -- 39
2017-09-13 01:00:00 18 0 Calma 8 Este 0 -- -- 36
2017-09-13 00:00:00 19.6 3 Este 8 Este 0 -- -- 34
2017-09-12 23:00:00 20.6 3 Nordeste 8 Este 0 -- -- 32
2017-09-12 22:00:00 21.7 0 Calma 6 Este 0 -- -- 30
2017-09-12 21:00:00 23.7 0 Calma 13 Noroeste 0 -- -- 27
2017-09-12 20:00:00 25.3 5 Norte 20 Noroeste 0 -- -- 27
2017-09-12 19:00:00 26.6 8 Noroeste 22 Norte 0 -- -- 26
2017-09-12 18:00:00 27.7 11 Noroeste 26 Noroeste 0 -- -- 27
2017-09-12 17:00:00 28 9 Noroeste 25 Noroeste 0 -- -- 26
2017-09-12 16:00:00 27.3 10 Noroeste 25 Norte 0 -- -- 28
2017-09-12 15:00:00 27.2 10 Noroeste 26 Noroeste 0 -- -- 29
2017-09-12 14:00:00 26.7 9 Noroeste 20 Oeste 0 -- -- 30
2017-09-12 13:00:00 25.3 4 Noroeste 19 Noroeste 0 -- -- 36
2017-09-12 12:00:00 24.3 4 Norte 17 Norte 0 -- -- 37
2017-09-12 11:00:00 22.5 3 Noroeste 8 Noroeste 0 -- -- 42
2017-09-12 10:00:00 19.3 3 Norte 6 Noroeste 0 -- -- 46
2017-09-12 09:00:00 15.1 0 Calma 11 Sur 0 -- -- 57
2017-09-12 08:00:00 14.7 0 Calma 3 Norte 0 -- -- 56
2017-09-12 07:00:00 15.2 0 Calma 4 Nordeste 0 -- -- 53
2017-09-12 06:00:00 16.7 0 Calma 5 Norte 0 -- -- 51
2017-09-12 05:00:00 17.2 0 Calma 5 Este 0 -- -- 50
2017-09-12 04:00:00 18.8 2 Nordeste 8 Norte 0 -- -- 47
2017-09-12 03:00:00 20.1 0 Calma 10 Noroeste 0 -- -- 44
2017-09-12 02:00:00 21 3 Norte 12 Noroeste 0 -- -- 42
2017-09-12 01:00:00 21.7 0 Calma 9 Norte 0 -- -- 38
2017-09-12 00:00:00 22.6 2 Norte 15 Norte 0 -- -- 33
2017-09-11 23:00:00 23.7 8 Noroeste 22 Noroeste 0 -- -- 31
2017-09-11 22:00:00 24.5 10 Noroeste 18 Noroeste 0 -- -- 27
2017-09-11 21:00:00 25.9 7 Noroeste 21 Noroeste 0 -- -- 23
2017-09-11 20:00:00 28.2 14 Noroeste 27 Noroeste 0 -- -- 20
2017-09-11 19:00:00 29.4 16 Noroeste 36 Noroeste 0 -- -- 21
2017-09-11 18:00:00 30.5 15 Noroeste 39 Oeste 0 -- -- 20
2017-09-11 17:00:00 30.7 12 Noroeste 41 Oeste 0 -- -- 20
2017-09-11 16:00:00 30.3 11 Noroeste 32 Noroeste 0 -- -- 21
2017-09-11 15:00:00 29.8 12 Noroeste 28 Noroeste 0 -- -- 24
2017-09-11 14:00:00 28.1 11 Noroeste 24 Oeste 0 -- -- 28
2017-09-11 13:00:00 26.9 9 Oeste 19 Noroeste 0 -- -- 27
2017-09-11 12:00:00 25 9 Oeste 19 Oeste 0 -- -- 28
2017-09-11 11:00:00 21.9 5 Oeste 9 Oeste 0 -- -- 31
2017-09-11 10:00:00 18.8 0 Calma 4 Sur 0 -- -- 33
2017-09-11 09:00:00 13.1 0 Calma 6 Nordeste 0 -- -- 47
2017-09-11 08:00:00 11.7 2 Nordeste 8 Nordeste 0 -- -- 47
2017-09-11 07:00:00 12.4 3 Nordeste 5 Nordeste 0 -- -- 46
2017-09-11 06:00:00 12.9 3 Nordeste 6 Nordeste 0 -- -- 45
2017-09-11 05:00:00 13.7 2 Nordeste 5 Este 0 -- -- 43
2017-09-11 04:00:00 14.5 0 Calma 8 Sur 0 -- -- 41
2017-09-11 03:00:00 15.2 0 Calma 5 Oeste 0 -- -- 39
2017-09-11 02:00:00 16.5 0 Calma 5 Norte 0 -- -- 37
2017-09-11 01:00:00 17.3 0 Calma 6 Norte 0 -- -- 35
2017-09-11 00:00:00 17.6 0 Calma 9 Noroeste 0 -- -- 35
2017-09-10 23:00:00 18.4 0 Calma 5 Norte 0 -- -- 33
2017-09-10 22:00:00 19 0 Calma 7 Noroeste 0 -- -- 32
2017-09-10 21:00:00 20.2 2 Noroeste 17 Norte 0 -- -- 30
2017-09-10 20:00:00 21.2 8 Noroeste 26 Noroeste 0 -- -- 27
2017-09-10 19:00:00 22.2 11 Noroeste 28 Noroeste 0 -- -- 28
2017-09-10 18:00:00 23.3 9 Noroeste 33 Noroeste 0 -- -- 27
2017-09-10 17:00:00 23 9 Norte 29 Noroeste 0 -- -- 27
2017-09-10 16:00:00 22.7 12 Noroeste 31 Noroeste 0 -- -- 28
2017-09-10 15:00:00 22.2 11 Noroeste 40 Noroeste 0 -- -- 29
2017-09-10 14:00:00 21.3 10 Noroeste 29 Noroeste 0 -- -- 31
2017-09-10 13:00:00 20 9 Norte 27 Noroeste 0 -- -- 33
2017-09-10 12:00:00 18.9 6 Norte 25 Norte 0 -- -- 36
2017-09-10 11:00:00 17.2 8 Norte 24 Noroeste 0 -- -- 42
2017-09-10 10:00:00 14.7 8 Norte 23 Noroeste 0 -- -- 51
2017-09-10 09:00:00 11.2 4 Norte 14 Norte 0 -- -- 65
2017-09-10 08:00:00 10.6 0 Calma 13 Noroeste 0 -- -- 67
2017-09-10 07:00:00 10.8 3 Norte 12 Noroeste 0 -- -- 67
2017-09-10 06:00:00 11.6 4 Noroeste 14 Norte 0 -- -- 65
2017-09-10 05:00:00 12.1 0 Calma 8 Noroeste 0 -- -- 59
2017-09-10 04:00:00 13 0 Calma 8 Noroeste 0 -- -- 57
2017-09-10 03:00:00 14 2 Norte 13 Noroeste 0 -- -- 54
2017-09-10 02:00:00 15.5 2 Noroeste 13 Norte 0 -- -- 50
2017-09-10 01:00:00 16.7 0 Calma 17 Noroeste 0 -- -- 33
2017-09-10 00:00:00 18 5 Norte 24 Norte 0 -- -- 30
2017-09-09 23:00:00 18.4 5 Norte 15 Norte 0 -- -- 31
2017-09-09 22:00:00 19.5 5 Norte 19 Noroeste 0 -- -- 30
2017-09-09 21:00:00 20.8 7 Norte 31 Norte 0 -- -- 29
2017-09-09 20:00:00 21.8 11 Norte 34 Noroeste 0 -- -- 32
2017-09-09 19:00:00 23.3 13 Noroeste 41 Noroeste 0 -- -- 31
2017-09-09 18:00:00 23.1 15 Noroeste 41 Noroeste 0 -- -- 34
2017-09-09 17:00:00 23.7 14 Noroeste 36 Noroeste 0 -- -- 35
2017-09-09 16:00:00 24.8 12 Noroeste 40 Noroeste 0 -- -- 36
2017-09-09 15:00:00 24.7 13 Noroeste 32 Noroeste 0 -- -- 36
2017-09-09 14:00:00 24 12 Noroeste 30 Noroeste 0 -- -- 35
2017-09-09 13:00:00 24 8 Noroeste 29 Noroeste 0 -- -- 34
2017-09-09 12:00:00 21.6 15 Noroeste 26 Noroeste 0 -- -- 37
2017-09-09 11:00:00 19.5 8 Oeste 15 Oeste 0 -- -- 33
2017-09-09 10:00:00 17.8 3 Oeste 10 Sudoeste 0 -- -- 33
2017-09-09 09:00:00 15.2 3 Sudeste 6 Sur 0 -- -- 36
2017-09-09 08:00:00 14.8 3 Sudeste 6 Sudeste 0 -- -- 33
2017-09-09 07:00:00 14.3 0 Calma 7 Este 0 -- -- 36
2017-09-09 06:00:00 14.5 3 Este 7 Este 0 -- -- 35
2017-09-09 05:00:00 15.3 3 Este 8 Este 0 -- -- 34
2017-09-09 04:00:00 15.9 2 Sudeste 8 Este 0 -- -- 34
2017-09-09 03:00:00 16.7 3 Nordeste 8 Este 0 -- -- 34
2017-09-09 02:00:00 17.7 3 Nordeste 7 Este 0 -- -- 32
2017-09-09 01:00:00 19.2 3 Nordeste 8 Nordeste 0 -- -- 30
2017-09-09 00:00:00 21.5 3 Nordeste 7 Nordeste 0 -- -- 28
2017-09-08 23:00:00 22.6 0 Calma 5 Nordeste 0 -- -- 27
2017-09-08 22:00:00 24 0 Calma 5 Nordeste 0 -- -- 25
2017-09-08 21:00:00 26.6 0 Calma 5 Sudeste 0 -- -- 24
2017-09-08 20:00:00 29.4 3 Oeste 11 Oeste 0 -- -- 20
2017-09-08 19:00:00 30.6 6 Noroeste 15 Oeste 0 -- -- 20
2017-09-08 18:00:00 31.9 7 Noroeste 21 Noroeste 0 -- -- 18
2017-09-08 17:00:00 31.6 9 Oeste 26 Oeste 0 -- -- 21
2017-09-08 16:00:00 31.5 7 Oeste 22 Oeste 0 -- -- 20
2017-09-08 15:00:00 30.8 6 Noroeste 20 Sudoeste 0 -- -- 24
2017-09-08 14:00:00 29.3 5 Sudeste 14 Sur 0 -- -- 31
2017-09-08 13:00:00 26.8 4 Sur 13 Sur 0 -- -- 43
2017-09-08 12:00:00 23.9 7 Sudeste 18 Sudeste 0 -- -- 59
2017-09-08 11:00:00 20.6 7 Sudeste 19 Este 0 -- -- 76
2017-09-08 10:00:00 17.7 6 Este 13 Este 0 -- -- 90
2017-09-08 09:00:00 16.8 3 Este 11 Este 0 -- -- 91
2017-09-08 08:00:00 17.1 3 Este 9 Este 0 -- -- 83
2017-09-08 07:00:00 16.9 0 Calma 9 Este 0 -- -- 59
2017-09-08 06:00:00 17.9 3 Este 11 Sudeste 0 -- -- 60
2017-09-08 05:00:00 18.3 0 Calma 7 Este 0 -- -- 81
2017-09-08 04:00:00 19 0 Calma 16 Sudeste 0 -- -- 73
2017-09-08 03:00:00 20.2 10 Este 25 Nordeste 0 -- -- 69
2017-09-08 02:00:00 20.9 10 Este 26 Este 0 -- -- 62
2017-09-08 01:00:00 21.5 9 Este 26 Este 0 -- -- 49
2017-09-08 00:00:00 21.9 3 Nordeste 13 Este 0 -- -- 22
2017-09-07 23:00:00 22.4 2 Nordeste 8 Nordeste 0 -- -- 21
2017-09-07 22:00:00 22.8 0 Calma 6 Nordeste 0 -- -- 21
2017-09-07 21:00:00 26 0 Calma 8 Oeste 0 -- -- 23
2017-09-07 20:00:00 27.9 3 Noroeste 23 Noroeste 0 -- -- 22
2017-09-07 19:00:00 29.2 9 Noroeste 19 Noroeste 0 -- -- 24
2017-09-07 18:00:00 30.4 5 Noroeste 19 Noroeste 0 -- -- 30
2017-09-07 17:00:00 30.4 3 Norte 20 Norte 0 -- -- 32
2017-09-07 16:00:00 29.9 3 Este 19 Noroeste 0 -- -- 38
2017-09-07 15:00:00 29.4 4 Nordeste 14 Este 0 -- -- 41
2017-09-07 14:00:00 28.5 4 Este 14 Este 0 -- -- 46
2017-09-07 13:00:00 26.7 6 Este 17 Este 0 -- -- 52
2017-09-07 12:00:00 24.9 5 Este 20 Este 0 -- -- 61
2017-09-07 11:00:00 22.4 12 Este 26 Este 0 -- -- 70
2017-09-07 10:00:00 20.9 15 Este 27 Este 0 -- -- 78
2017-09-07 09:00:00 19.1 12 Este 29 Este 0 -- -- 85
2017-09-07 08:00:00 18.5 18 Este 39 Este 0 -- -- 87
2017-09-07 07:00:00 18.6 17 Este 33 Este 0 -- -- 88
2017-09-07 06:00:00 18.7 12 Este 24 Este 0 -- -- 86
2017-09-07 05:00:00 19.2 2 Este 12 Este 0 -- -- 83
2017-09-07 04:00:00 19.5 4 Norte 32 Este 0 -- -- 80
2017-09-07 03:00:00 19.8 22 Este 35 Sudeste 0 -- -- 79
2017-09-07 02:00:00 20 22 Este 37 Este 0 -- -- 78
2017-09-07 01:00:00 20.3 20 Este 36 Este 0 -- -- 78
2017-09-07 00:00:00 21.9 19 Este 32 Este 0 -- -- 69
2017-09-06 23:00:00 22.6 17 Este 33 Sudeste 0 -- -- 61
2017-09-06 22:00:00 22.3 20 Este 37 Este 0 -- -- 61
2017-09-06 21:00:00 25.2 15 Este 33 Sudeste 0 -- -- 52
2017-09-06 20:00:00 27.1 19 Este 44 Este 0 -- -- 42
2017-09-06 19:00:00 32.8 6 Oeste 17 Sudoeste 0 -- -- 27
2017-09-06 18:00:00 33.3 4 Noroeste 17 Norte 0 -- -- 28
2017-09-06 17:00:00 33.8 6 Oeste 28 Norte 0 -- -- 28
2017-09-06 16:00:00 34.4 6 Noroeste 17 Oeste 0 -- -- 27
2017-09-06 15:00:00 33.2 6 Oeste 15 Sudoeste 0 -- -- 29
2017-09-06 14:00:00 31.5 7 Sur 15 Sur 0 -- -- 31
2017-09-06 13:00:00 29.8 6 Sudeste 14 Sudeste 0 -- -- 38
2017-09-06 12:00:00 27.5 8 Sudeste 17 Sur 0 -- -- 46
2017-09-06 11:00:00 25 10 Sudeste 21 Este 0 -- -- 54
2017-09-06 10:00:00 22.5 14 Sudeste 24 Sudeste 0 -- -- 66
2017-09-06 09:00:00 20.6 12 Sudeste 22 Sudeste 0 -- -- 75
2017-09-06 08:00:00 19.4 13 Este 28 Este 0 -- -- 80
2017-09-06 07:00:00 19.5 13 Este 24 Este 0 -- -- 80
2017-09-06 06:00:00 19.7 12 Este 21 Este 0 -- -- 75
2017-09-06 05:00:00 19.9 7 Este 15 Este 0 -- -- 67
2017-09-06 04:00:00 20.7 3 Sudoeste 11 Este 0 -- -- 59
2017-09-06 03:00:00 21.6 2 Este 10 Este 0 -- -- 57
2017-09-06 02:00:00 22.3 3 Este 10 Este 0 -- -- 57
2017-09-06 01:00:00 23 3 Este 13 Este 0 -- -- 44
2017-09-06 00:00:00 22.8 0 Calma 6 Este 0 -- -- 43
2017-09-05 23:00:00 23.9 2 Norte 8 Norte 0 -- -- 41
2017-09-05 22:00:00 25.6 2 Nordeste 6 Nordeste 0 -- -- 37
2017-09-05 21:00:00 28.1 0 Calma 9 Norte 0 -- -- 34
2017-09-05 20:00:00 29.8 5 Oeste 15 Noroeste 0 -- -- 31
2017-09-05 19:00:00 31.4 5 Oeste 15 Noroeste 0 -- -- 29
2017-09-05 18:00:00 31.9 8 Oeste 19 Sudoeste 0 -- -- 28
2017-09-05 17:00:00 32.5 3 Oeste 11 Noroeste 0 -- -- 28
2017-09-05 16:00:00 32.1 6 Oeste 15 Sur 0 -- -- 30
2017-09-05 15:00:00 31.1 4 Sudoeste 14 Sudoeste 0 -- -- 31
2017-09-05 14:00:00 29.2 5 Sur 15 Sudeste 0 -- -- 38
2017-09-05 13:00:00 26.9 8 Sudeste 22 Este 0 -- -- 47
2017-09-05 12:00:00 24.9 13 Sudeste 27 Sur 0 -- -- 60
2017-09-05 11:00:00 22.5 16 Sudeste 29 Sudeste 0 -- -- 69
2017-09-05 10:00:00 20.3 17 Sudeste 36 Este 0 -- -- 79
2017-09-05 09:00:00 18.5 17 Sudeste 30 Sudeste 0 -- -- 88
2017-09-05 08:00:00 17.8 15 Este 28 Este 0 -- -- 90
2017-09-05 07:00:00 18 14 Este 30 Este 0 -- -- 90
2017-09-05 06:00:00 18.2 17 Este 32 Sudeste 0 -- -- 89
2017-09-05 05:00:00 18.5 17 Este 32 Este 0 -- -- 87
2017-09-05 04:00:00 18.9 19 Este 33 Sudeste 0 -- -- 85
2017-09-05 03:00:00 19.4 18 Este 31 Este 0 -- -- 82
2017-09-05 02:00:00 20 21 Este 32 Este 0 -- -- 80
2017-09-05 01:00:00 20.5 16 Este 31 Este 0 -- -- 76
2017-09-05 00:00:00 21.7 15 Sudeste 30 Este 0 -- -- 69
2017-09-04 23:00:00 21.9 3 Nordeste 8 Nordeste 0 -- -- 39
2017-09-04 22:00:00 24 2 Nordeste 5 Nordeste 0 -- -- 35
2017-09-04 21:00:00 26.5 3 Noroeste 11 Norte 0 -- -- 32
2017-09-04 20:00:00 28 5 Noroeste 17 Noroeste 0 -- -- 30
2017-09-04 19:00:00 29.4 6 Noroeste 24 Oeste 0 -- -- 27
2017-09-04 18:00:00 30.4 8 Noroeste 22 Noroeste 0 -- -- 26
2017-09-04 17:00:00 30.3 10 Noroeste 24 Noroeste 0 -- -- 26
2017-09-04 16:00:00 30.3 6 Noroeste 26 Norte 0 -- -- 26
2017-09-04 15:00:00 29.7 7 Norte 21 Noroeste 0 -- -- 27
2017-09-04 14:00:00 29.4 8 Noroeste 19 Norte 0 -- -- 27
2017-09-04 13:00:00 28.4 3 Norte 19 Noroeste 0 -- -- 28
2017-09-04 12:00:00 27.1 3 Sudoeste 12 Oeste 0 -- -- 28
2017-09-04 11:00:00 23.5 3 Sudoeste 6 Sudoeste 0 -- -- 30
2017-09-04 10:00:00 20.1 0 Calma 8 Noroeste 0 -- -- 38
2017-09-04 09:00:00 14.9 0 Calma 6 Este 0 -- -- 47
2017-09-04 08:00:00 13.3 2 Nordeste 6 Nordeste 0 -- -- 49
2017-09-04 07:00:00 13.9 3 Nordeste 7 Este 0 -- -- 47
2017-09-04 06:00:00 14.7 4 Nordeste 7 Nordeste 0 -- -- 45
2017-09-04 05:00:00 15.9 4 Nordeste 6 Nordeste 0 -- -- 43
2017-09-04 04:00:00 16.9 0 Calma 5 Nordeste 0 -- -- 40
2017-09-04 03:00:00 17.6 3 Nordeste 8 Nordeste 0 -- -- 35
2017-09-04 02:00:00 18.5 4 Nordeste 7 Nordeste 0 -- -- 32
2017-09-04 01:00:00 19.1 4 Nordeste 8 Nordeste 0 -- -- 30
2017-09-04 00:00:00 20.2 4 Nordeste 8 Nordeste 0 -- -- 29
2017-09-03 23:00:00 21.7 3 Nordeste 6 Norte 0 -- -- 27
2017-09-03 22:00:00 24.3 3 Nordeste 6 Este 0 -- -- 24
2017-09-03 21:00:00 27.2 0 Calma 18 Noroeste 0 -- -- 20
2017-09-03 20:00:00 29.1 8 Noroeste 24 Noroeste 0 -- -- 19
2017-09-03 19:00:00 30.5 9 Noroeste 27 Noroeste 0 -- -- 18
2017-09-03 18:00:00 31.4 13 Noroeste 30 Noroeste 0 -- -- 15
2017-09-03 17:00:00 31.7 13 Noroeste 31 Noroeste 0 -- -- 18
2017-09-03 16:00:00 31.2 8 Noroeste 25 Noroeste 0 -- -- 20
2017-09-03 15:00:00 30.3 12 Oeste 27 Oeste 0 -- -- 22
2017-09-03 14:00:00 29.6 8 Oeste 25 Noroeste 0 -- -- 25
2017-09-03 13:00:00 27.5 5 Oeste 16 Oeste 0 -- -- 29
2017-09-03 12:00:00 25.3 6 Sudoeste 12 Sudoeste 0 -- -- 29
2017-09-03 11:00:00 21.8 5 Sudeste 10 Sudeste 0 -- -- 41
2017-09-03 10:00:00 18 2 Oeste 8 Noroeste 0 -- -- 46
2017-09-03 09:00:00 14.8 0 Calma 4 Oeste 0 -- -- 49
2017-09-03 08:00:00 15.1 0 Calma 8 Este 0 -- -- 53
2017-09-03 07:00:00 14.5 2 Nordeste 9 Norte 0 -- -- 40
2017-09-03 06:00:00 14.9 0 Calma 4 Este 0 -- -- 37
2017-09-03 05:00:00 15.2 0 Calma 7 Nordeste 0 -- -- 36
2017-09-03 04:00:00 15.3 0 Calma 14 Sur 0 -- -- 35
2017-09-03 03:00:00 16.2 2 Este 8 Nordeste 0 -- -- 32
2017-09-03 02:00:00 16.2 0 Calma 7 Este 0 -- -- 32
2017-09-03 01:00:00 16.4 2 Nordeste 6 Nordeste 0 -- -- 30
2017-09-03 00:00:00 17.4 2 Nordeste 6 Nordeste 0 -- -- 28
2017-09-02 23:00:00 19.3 0 Calma 7 Nordeste 0 -- -- 26
2017-09-02 22:00:00 21.1 0 Calma 6 Nordeste 0 -- -- 24
2017-09-02 21:00:00 24.3 2 Norte 11 Noroeste 0 -- -- 20
2017-09-02 20:00:00 26.3 7 Noroeste 23 Noroeste 0 -- -- 16
2017-09-02 19:00:00 27.9 9 Noroeste 20 Noroeste 0 -- -- 15
2017-09-02 18:00:00 29.4 9 Oeste 21 Oeste 0 -- -- 15
2017-09-02 17:00:00 28.9 3 Norte 21 Noroeste 0 -- -- 17
2017-09-02 16:00:00 28.8 9 Noroeste 24 Oeste 0 -- -- 21
2017-09-02 15:00:00 28.3 7 Oeste 18 Oeste 0 -- -- 26
2017-09-02 14:00:00 26.9 5 Oeste 15 Noroeste 0 -- -- 32
2017-09-02 13:00:00 25.9 3 Oeste 11 Noroeste 0 -- -- 35
2017-09-02 12:00:00 24 2 Sudeste 14 Este 0 -- -- 35
2017-09-02 11:00:00 22.4 3 Este 18 Este 0 -- -- 36
2017-09-02 10:00:00 19.5 2 Noroeste 11 Este 0 -- -- 46
2017-09-02 09:00:00 16.6 2 Oeste 12 Nordeste 0 -- -- 56
2017-09-02 08:00:00 16.4 0 Calma 6 Norte 0 -- -- 58
2017-09-02 07:00:00 16.9 2 Noroeste 8 Sudoeste 0 -- -- 58
2017-09-02 06:00:00 17.5 2 Oeste 15 Nordeste 0 -- -- 58
2017-09-02 05:00:00 18 4 Nordeste 14 Nordeste 0 -- -- 58
2017-09-02 04:00:00 18.2 3 Nordeste 15 Este 0 -- -- 57
2017-09-02 03:00:00 18.8 5 Este 31 Este 0 -- -- 75
2017-09-02 02:00:00 19.2 13 Este 31 Este 0 -- -- 79
2017-09-02 01:00:00 19.6 14 Este 29 Este 0 -- -- 75
2017-09-02 00:00:00 20.2 13 Este 30 Este 0 -- -- 73
2017-09-01 23:00:00 23.4 14 Este 28 Este 0 -- -- 61
2017-09-01 22:00:00 24.6 0 Calma 9 Norte 0 -- -- 38
2017-09-01 21:00:00 26.2 2 Norte 15 Norte 0 -- -- 35
2017-09-01 20:00:00 27.6 4 Norte 24 Norte 0 -- -- 34
2017-09-01 19:00:00 29.1 6 Norte 22 Noroeste 0 -- -- 33
2017-09-01 18:00:00 30.5 5 Noroeste 21 Noroeste 0 -- -- 32
2017-09-01 17:00:00 30.1 10 Noroeste 20 Norte 0 -- -- 32
2017-09-01 16:00:00 28.7 4 Noroeste 13 Oeste 0 -- -- 37
2017-09-01 15:00:00 27.4 3 Noroeste 15 Sur 0 -- -- 46
2017-09-01 14:00:00 26.7 6 Sur 22 Este 0 -- -- 49
2017-09-01 13:00:00 25.6 9 Sudeste 22 Sudeste 0 -- -- 54
2017-09-01 12:00:00 23.9 14 Sudeste 27 Sudeste 0.2 -- -- 62
2017-09-01 11:00:00 22.2 15 Sudeste 31 Este 0 -- -- 70
2017-09-01 10:00:00 20.5 16 Sudeste 30 Este 0 -- -- 78
2017-09-01 09:00:00 18.8 15 Este 29 Este 0 -- -- 84
2017-09-01 08:00:00 18 13 Este 26 Este 0 -- -- 86
2017-09-01 07:00:00 18.1 13 Este 28 Este 0 -- -- 86
2017-09-01 06:00:00 18.5 18 Este 33 Este 0 -- -- 85
2017-09-01 05:00:00 18.9 18 Este 32 Este 0 -- -- 84
2017-09-01 04:00:00 19 19 Este 34 Este 0 -- -- 86
2017-09-01 03:00:00 19.3 19 Este 33 Este 0 -- -- 86
2017-09-01 02:00:00 19.9 18 Este 30 Sudeste 0 -- -- 82
2017-09-01 01:00:00 20.7 14 Este 24 Sudeste 0 -- -- 61
2017-09-01 00:00:00 20.2 2 Nordeste 8 Este 0 -- -- 48
2017-08-31 23:00:00 21 3 Nordeste 7 Este 0 -- -- 46
2017-08-31 22:00:00 22.8 2 Nordeste 6 Este 0 -- -- 42
2017-08-31 21:00:00 25.3 2 Sur 7 Oeste 0 -- -- 36
2017-08-31 20:00:00 26.9 3 Oeste 13 Noroeste 0 -- -- 32
2017-08-31 19:00:00 28.7 5 Noroeste 15 Noroeste 0 -- -- 30
2017-08-31 18:00:00 29.1 7 Noroeste 18 Noroeste 0 -- -- 30
2017-08-31 17:00:00 28.9 8 Oeste 19 Noroeste 0 -- -- 31
2017-08-31 16:00:00 28.6 4 Sur 19 Noroeste 0 -- -- 32
2017-08-31 15:00:00 28.8 3 Noroeste 17 Oeste 0 -- -- 32
2017-08-31 14:00:00 27.4 2 Sudoeste 17 Oeste 0 -- -- 34
2017-08-31 13:00:00 27.1 5 Oeste 15 Sudeste 0 -- -- 35
2017-08-31 12:00:00 24.5 6 Sudeste 12 Sudeste 0 -- -- 46
2017-08-31 11:00:00 22.6 5 Sur 12 Sudoeste 0 -- -- 56
2017-08-31 10:00:00 19.7 4 Sur 10 Sur 0 -- -- 68
2017-08-31 09:00:00 16.6 0 Calma 4 Norte 0 -- -- 78
2017-08-31 08:00:00 15.7 2 Este 11 Sudeste 0 -- -- 80
2017-08-31 07:00:00 15.7 0 Calma 4 Nordeste 0 -- -- 78
2017-08-31 06:00:00 16.1 0 Calma 5 Nordeste 0 -- -- 77
2017-08-31 05:00:00 16.3 2 Nordeste 6 Nordeste 0 -- -- 75
2017-08-31 04:00:00 17.2 0 Calma 5 Este 0 -- -- 73
2017-08-31 03:00:00 17.9 2 Este 5 Este 0 -- -- 71
2017-08-31 02:00:00 19 0 Calma 6 Noroeste 0 -- -- 64
2017-08-31 01:00:00 20.2 3 Este 10 Sudeste 0 -- -- 61
2017-08-31 00:00:00 20.5 5 Sudeste 10 Este 0 -- -- 60
2017-08-30 23:00:00 20.9 5 Sudeste 8 Sudeste 0 -- -- 57
2017-08-30 22:00:00 21.7 3 Sudeste 9 Sudeste 0 -- -- 54
2017-08-30 21:00:00 22.7 6 Sudeste 14 Sudeste 0 -- -- 49
2017-08-30 20:00:00 23.8 9 Sudeste 18 Sudeste 0 -- -- 45
2017-08-30 19:00:00 24.5 9 Sudeste 18 Sudeste 0 -- -- 44
2017-08-30 18:00:00 25.2 4 Sudoeste 21 Sur 0 -- -- 38
2017-08-30 17:00:00 24.7 6 Sur 18 Sur 0.2 -- -- 41
2017-08-30 16:00:00 24.1 8 Sur 18 Sur 0 -- -- 46
2017-08-30 15:00:00 24.1 6 Sur 15 Sudoeste 0 -- -- 48
2017-08-30 14:00:00 23.1 5 Oeste 14 Oeste 0 -- -- 53
2017-08-30 13:00:00 20.8 5 Sur 14 Sur 0 -- -- 60
2017-08-30 12:00:00 19.4 6 Sur 12 Sudoeste 0 -- -- 69
2017-08-30 11:00:00 17.8 4 Sur 11 Sur 0 -- -- 79
2017-08-30 10:00:00 16.9 5 Sudeste 9 Sudeste 0 -- -- 85
2017-08-30 09:00:00 15.6 4 Sudeste 8 Este 0 -- -- 92
2017-08-30 08:00:00 15.3 0 Calma 10 Sudeste 0 -- -- 92
2017-08-30 07:00:00 15.2 5 Sudeste 21 Sudeste 0 -- -- 95
2017-08-30 06:00:00 15.7 9 Sudeste 19 Sudeste 0 -- -- 92
2017-08-30 05:00:00 16.1 10 Sudeste 19 Este 0 -- -- 91
2017-08-30 04:00:00 16.4 11 Este 21 Sudeste 0 -- -- 89
2017-08-30 03:00:00 16.8 12 Sudeste 30 Este 0 -- -- 87
2017-08-30 02:00:00 17 15 Sudeste 32 Sudeste 0 -- -- 83
2017-08-30 01:00:00 17.3 17 Sudeste 35 Este 0 -- -- 80
2017-08-30 00:00:00 17.5 17 Este 42 Este 0 -- -- 78
2017-08-29 23:00:00 17.7 22 Este 37 Este 0 -- -- 80
2017-08-29 22:00:00 18.9 15 Este 29 Este 0 -- -- 69
2017-08-29 21:00:00 19.6 17 Este 32 Este 0 -- -- 68
2017-08-29 20:00:00 21.7 15 Este 31 Este 0 -- -- 67
2017-08-29 19:00:00 23.5 13 Sudeste 30 Sudeste 0 -- -- 64
2017-08-29 18:00:00 23.8 18 Sudeste 40 Sudeste 0.2 -- -- 60
2017-08-29 17:00:00 26.6 7 Sudoeste 22 Sur 0 -- -- 42
2017-08-29 16:00:00 25.4 7 Sur 19 Sur 0 -- -- 45
2017-08-29 15:00:00 24.1 6 Sur 20 Sudeste 0 -- -- 56
2017-08-29 14:00:00 23.2 10 Sudeste 18 Sur 0 -- -- 62
2017-08-29 13:00:00 22.9 7 Sur 16 Sudeste 0 -- -- 63
2017-08-29 12:00:00 19.7 6 Sudeste 17 Este 0 -- -- 78
2017-08-29 11:00:00 19.8 11 Sudeste 18 Este 0 -- -- 75
2017-08-29 10:00:00 18.8 2 Nordeste 13 Este 0 -- -- 81
2017-08-29 09:00:00 16.2 0 Calma 12 Este 0 -- -- 90
2017-08-29 08:00:00 15.2 2 Sudoeste 6 Sudoeste 0 -- -- 91
2017-08-29 07:00:00 15.6 0 Calma 6 Este 0 -- -- 92
2017-08-29 06:00:00 16.1 0 Calma 7 Norte 0 -- -- 92
2017-08-29 05:00:00 15.9 2 Norte 19 Oeste 0 -- -- 94
2017-08-29 04:00:00 15.8 3 Este 7 Nordeste 0 -- -- 93
2017-08-29 03:00:00 16.4 0 Calma 5 Este 0 -- -- 93
2017-08-29 02:00:00 16.6 2 Este 6 Este 0 -- -- 92
2017-08-29 01:00:00 16.8 0 Calma 6 Norte 0 -- -- 93
2017-08-29 00:00:00 17.2 2 Oeste 17 Este 0.8 -- -- 92
2017-08-28 23:00:00 17.5 12 Este 21 Este 0 -- -- 84
2017-08-28 22:00:00 17.8 7 Este 14 Este 0 -- -- 82
2017-08-28 21:00:00 18.3 0 Calma 6 Noroeste 0 -- -- 84
2017-08-28 20:00:00 18.2 0 Calma 11 Oeste 0.2 -- -- 83
2017-08-28 19:00:00 18.5 3 Este 28 Oeste 0 -- -- 77
2017-08-28 18:00:00 21.4 10 Oeste 34 Sudoeste 0 -- -- 60
2017-08-28 17:00:00 23 17 Oeste 41 Oeste 0 -- -- 64
2017-08-28 16:00:00 25.7 7 Sudoeste 15 Oeste 0 -- -- 47
2017-08-28 15:00:00 24.7 6 Sudoeste 16 Sudoeste 0 -- -- 57
2017-08-28 14:00:00 23.8 8 Sudeste 22 Este 0 -- -- 67
2017-08-28 13:00:00 23.4 8 Sudeste 22 Sudeste 0 -- -- 67
2017-08-28 12:00:00 23.2 8 Sur 23 Sudeste 0 -- -- 69
2017-08-28 11:00:00 23.7 11 Sudeste 24 Sudeste 0 -- -- 67
2017-08-28 10:00:00 22.9 12 Sudeste 26 Este 0.2 -- -- 69
2017-08-28 09:00:00 21 14 Este 27 Este 0 -- -- 77
2017-08-28 08:00:00 19.8 12 Este 27 Este 0 -- -- 80
2017-08-28 07:00:00 19.7 14 Sudeste 27 Sudeste 0 -- -- 77
2017-08-28 06:00:00 20.7 19 Sudeste 39 Sudeste 0 -- -- 71
2017-08-28 05:00:00 21.2 19 Este 38 Este 0 -- -- 65
2017-08-28 04:00:00 21.4 23 Este 44 Este 0 -- -- 62
2017-08-28 03:00:00 21.2 22 Este 38 Este 0 -- -- 62
2017-08-28 02:00:00 20.8 21 Sudeste 39 Sudeste 0 -- -- 64
2017-08-28 01:00:00 19.9 20 Sudeste 42 Sudeste 0 -- -- 70
2017-08-28 00:00:00 19.9 21 Sudeste 37 Este 0 -- -- 70
2017-08-27 23:00:00 20.2 20 Este 32 Este 0 -- -- 68
2017-08-27 22:00:00 20.5 15 Sudeste 32 Este 0 -- -- 68
2017-08-27 21:00:00 20.7 18 Este 32 Este 0.2 -- -- 67
2017-08-27 20:00:00 21.8 17 Este 32 Sudeste 0 -- -- 63
2017-08-27 19:00:00 20 17 Sudeste 35 Sudeste 0.2 -- -- 73
2017-08-27 18:00:00 21.6 13 Sur 24 Sur 0 -- -- 67
2017-08-27 17:00:00 22 13 Sudeste 35 Sudeste 0 -- -- 67
2017-08-27 16:00:00 20.4 14 Sudeste 33 Sur 0 -- -- 74
2017-08-27 15:00:00 22.1 7 Oeste 43 Oeste 0.2 -- -- 66
2017-08-27 14:00:00 25.9 9 Sur 17 Sur 0 -- -- 52
2017-08-27 13:00:00 24.5 7 Sudeste 21 Sudeste 0.4 -- -- 63
2017-08-27 12:00:00 23.7 11 Sudeste 21 Este 0 -- -- 65
2017-08-27 11:00:00 24.6 12 Sudeste 29 Sudeste 0 -- -- 54
2017-08-27 10:00:00 24.4 15 Sudeste 30 Sudeste 0 -- -- 54
2017-08-27 09:00:00 22.3 17 Este 33 Este 0 -- -- 61
2017-08-27 08:00:00 21.8 20 Este 35 Este 0 -- -- 65
2017-08-27 07:00:00 22.1 17 Sudeste 33 Sudeste 0 -- -- 63
2017-08-27 06:00:00 22.3 18 Este 32 Sudeste 0 -- -- 64
2017-08-27 05:00:00 22.8 18 Sudeste 39 Sudeste 0 -- -- 58
2017-08-27 04:00:00 21.9 26 Sudeste 41 Sudeste 0 -- -- 69
2017-08-27 03:00:00 22.8 15 Este 32 Este 0 -- -- 62
2017-08-27 02:00:00 23.4 10 Este 26 Este 0 -- -- 62
2017-08-27 01:00:00 24.1 13 Este 32 Este 0 -- -- 60
2017-08-27 00:00:00 24.8 17 Este 31 Este 0 -- -- 56
2017-08-26 23:00:00 25.7 6 Este 16 Este 0 -- -- 45
2017-08-26 22:00:00 26.6 2 Noroeste 12 Este 0.2 -- -- 49
2017-08-26 21:00:00 28.6 6 Este 19 Este 0 -- -- 49
2017-08-26 20:00:00 31.3 8 Este 17 Sudeste 0 -- -- 30
2017-08-26 19:00:00 33.3 4 Noroeste 24 Norte 0 -- -- 23
2017-08-26 18:00:00 33.9 8 Norte 32 Noroeste 0 -- -- 22
2017-08-26 17:00:00 34.4 5 Noroeste 16 Noroeste 0 -- -- 25
2017-08-26 16:00:00 33.9 7 Noroeste 22 Oeste 0 -- -- 24
2017-08-26 15:00:00 34.7 7 Noroeste 24 Oeste 0 -- -- 24
2017-08-26 14:00:00 33.9 6 Oeste 18 Oeste 0 -- -- 24
2017-08-26 13:00:00 31.8 6 Sudeste 19 Sudeste 0 -- -- 31
2017-08-26 12:00:00 29.6 13 Sudeste 22 Este 0 -- -- 36
2017-08-26 11:00:00 26.6 12 Sudeste 28 Este 0 -- -- 49
2017-08-26 10:00:00 23.7 15 Sudeste 29 Este 0 -- -- 59
2017-08-26 09:00:00 22.3 19 Este 31 Este 0 -- -- 62
2017-08-26 08:00:00 21.4 17 Este 31 Este 0 -- -- 67
2017-08-26 07:00:00 21.9 17 Este 32 Este 0 -- -- 66
2017-08-26 06:00:00 22.2 15 Este 28 Este 0 -- -- 65
2017-08-26 05:00:00 22.6 16 Sudeste 29 Este 0 -- -- 63
2017-08-26 04:00:00 23.4 14 Sudeste 27 Este 0 -- -- 57
2017-08-26 03:00:00 23.9 14 Sudeste 27 Sudeste 0 -- -- 53
2017-08-26 02:00:00 24.5 14 Sudeste 27 Sudeste 0 -- -- 49
2017-08-26 01:00:00 25.2 14 Sudeste 30 Sudeste 0 -- -- 47
2017-08-26 00:00:00 26.3 15 Sudeste 35 Este 0 -- -- 42